Home > Products > Valid Products > TAF

000
FTUS44 KMRX 271724
TAFTYS
TAF
KTYS 271724Z 2718/2818 02008KT P6SM FEW035 SCT250
      TEMPO 2718/2722 02008G17KT
     FM280100 03003KT P6SM FEW050 BKN250
     FM281400 05005KT P6SM SCT250=



000
FTUS44 KMRX 271724
TAFTRI
TAF
KTRI 271724Z 2718/2818 32007KT P6SM BKN060
     FM280300 00000KT P6SM SCT250
     FM281400 02005KT P6SM BKN250=



000
FTUS44 KMRX 271724
TAFTYS
TAF
KTYS 271724Z 2718/2818 02008KT P6SM FEW035 SCT250
      TEMPO 2718/2722 02008G17KT
     FM280100 03003KT P6SM FEW050 BKN250
     FM281400 05005KT P6SM SCT250=



000
FTUS44 KMRX 271724
TAFCHA
TAF
KCHA 271724Z 2718/2818 03012KT P6SM SCT050 BKN250
      TEMPO 2718/2722 03012G20KT
     FM280100 03003KT P6SM BKN250
     FM281500 05008KT P6SM BKN250=



000
FTUS44 KMRX 271724
TAFTYS
TAF
KTYS 271724Z 2718/2818 02008KT P6SM FEW035 SCT250
      TEMPO 2718/2722 02008G17KT
     FM280100 03003KT P6SM FEW050 BKN250
     FM281400 05005KT P6SM SCT250=



000
FTUS44 KMRX 271724
TAFTRI
TAF
KTRI 271724Z 2718/2818 32007KT P6SM BKN060
     FM280300 00000KT P6SM SCT250
     FM281400 02005KT P6SM BKN250=



000
FTUS44 KMRX 271724
TAFCHA
TAF
KCHA 271724Z 2718/2818 03012KT P6SM SCT050 BKN250
      TEMPO 2718/2722 03012G20KT
     FM280100 03003KT P6SM BKN250
     FM281500 05008KT P6SM BKN250=



000
FTUS44 KMRX 271724
TAFCHA
TAF
KCHA 271724Z 2718/2818 03012KT P6SM SCT050 BKN250
      TEMPO 2718/2722 03012G20KT
     FM280100 03003KT P6SM BKN250
     FM281500 05008KT P6SM BKN250=



000
FTUS44 KMRX 271724
TAFTRI
TAF
KTRI 271724Z 2718/2818 32007KT P6SM BKN060
     FM280300 00000KT P6SM SCT250
     FM281400 02005KT P6SM BKN250=



000
FTUS44 KMRX 271724
TAFCHA
TAF
KCHA 271724Z 2718/2818 03012KT P6SM SCT050 BKN250
      TEMPO 2718/2722 03012G20KT
     FM280100 03003KT P6SM BKN250
     FM281500 05008KT P6SM BKN250=



000
FTUS44 KMRX 271724
TAFTYS
TAF
KTYS 271724Z 2718/2818 02008KT P6SM FEW035 SCT250
      TEMPO 2718/2722 02008G17KT
     FM280100 03003KT P6SM FEW050 BKN250
     FM281400 05005KT P6SM SCT250=



000
FTUS44 KMRX 271724
TAFTRI
TAF
KTRI 271724Z 2718/2818 32007KT P6SM BKN060
     FM280300 00000KT P6SM SCT250
     FM281400 02005KT P6SM BKN250=



000
FTUS44 KMRX 271719 AAA
TAFCHA
TAF AMD
KCHA 271719Z 2717/2812 03012KT P6SM SCT050 BKN250
      TEMPO 2717/2721 03012G20KT
     FM280100 03003KT P6SM BKN250=



000
FTUS44 KMRX 271719 AAA
TAFCHA
TAF AMD
KCHA 271719Z 2717/2812 03012KT P6SM SCT050 BKN250
      TEMPO 2717/2721 03012G20KT
     FM280100 03003KT P6SM BKN250=



000
FTUS44 KMRX 271719 AAA
TAFCHA
TAF AMD
KCHA 271719Z 2717/2812 03012KT P6SM SCT050 BKN250
      TEMPO 2717/2721 03012G20KT
     FM280100 03003KT P6SM BKN250=



000
FTUS44 KMRX 271521 AAA
TAFTYS
TAF AMD
KTYS 271521Z 2715/2812 02008KT P6SM SCT250
      TEMPO 2715/2719 02008G17KT
     FM280100 03003KT P6SM FEW050 BKN250=



000
FTUS44 KMRX 271521 AAA
TAFTYS
TAF AMD
KTYS 271521Z 2715/2812 02008KT P6SM SCT250
      TEMPO 2715/2719 02008G17KT
     FM280100 03003KT P6SM FEW050 BKN250=



000
FTUS44 KMRX 271521 AAA
TAFTYS
TAF AMD
KTYS 271521Z 2715/2812 02008KT P6SM SCT250
      TEMPO 2715/2719 02008G17KT
     FM280100 03003KT P6SM FEW050 BKN250=



000
FTUS44 KMRX 271521 AAA
TAFTYS
TAF AMD
KTYS 271521Z 2715/2812 02008KT P6SM SCT250
      TEMPO 2715/2719 02008G17KT
     FM280100 03003KT P6SM FEW050 BKN250=



000
FTUS44 KMRX 271127
TAFTYS
TAF
KTYS 271127Z 2712/2812 03010KT P6SM SCT050 SCT250
     FM271400 02007KT P6SM SCT250
     FM280100 03003KT P6SM FEW050 BKN250=



000
FTUS44 KMRX 271127
TAFCHA
TAF
KCHA 271127Z 2712/2812 01008KT P6SM SCT050 BKN250
     FM280100 03003KT P6SM BKN250=



000
FTUS44 KMRX 271127
TAFTRI
TAF
KTRI 271127Z 2712/2812 00000KT P6SM SCT060
     FM271500 32007KT P6SM SCT060
     FM272100 VRB02KT P6SM BKN100
     FM280400 00000KT P6SM SCT250=



000
FTUS44 KMRX 271127
TAFCHA
TAF
KCHA 271127Z 2712/2812 01008KT P6SM SCT050 BKN250
     FM280100 03003KT P6SM BKN250=



000
FTUS44 KMRX 271127
TAFTYS
TAF
KTYS 271127Z 2712/2812 03010KT P6SM SCT050 SCT250
     FM271400 02007KT P6SM SCT250
     FM280100 03003KT P6SM FEW050 BKN250=



000
FTUS44 KMRX 271127
TAFTRI
TAF
KTRI 271127Z 2712/2812 00000KT P6SM SCT060
     FM271500 32007KT P6SM SCT060
     FM272100 VRB02KT P6SM BKN100
     FM280400 00000KT P6SM SCT250=



000
FTUS44 KMRX 270520
TAFTRI
TAF
KTRI 270520Z 2706/2806 00000KT P6SM BKN060
     FM271100 00000KT P6SM FEW050
     FM271500 33005KT P6SM SCT060
     FM280100 VRB02KT P6SM SCT045=



000
FTUS44 KMRX 270520
TAFTYS
TAF
KTYS 270520Z 2706/2806 36003KT P6SM BKN050
     FM271000 02003KT P6SM SCT050
     FM271400 02007KT P6SM SCT250
     FM280100 03003KT P6SM FEW050 BKN250=



000
FTUS44 KMRX 270520
TAFTRI
TAF
KTRI 270520Z 2706/2806 00000KT P6SM BKN060
     FM271100 00000KT P6SM FEW050
     FM271500 33005KT P6SM SCT060
     FM280100 VRB02KT P6SM SCT045=



000
FTUS44 KMRX 270520
TAFCHA
TAF
KCHA 270520Z 2706/2806 36003KT P6SM SCT250
     FM271000 00000KT 6SM BR SCT250
     FM271400 36008KT P6SM SCT050
     FM280100 03003KT P6SM BKN250=



000
FTUS44 KMRX 270520
TAFCHA
TAF
KCHA 270520Z 2706/2806 36003KT P6SM SCT250
     FM271000 00000KT 6SM BR SCT250
     FM271400 36008KT P6SM SCT050
     FM280100 03003KT P6SM BKN250=



000
FTUS44 KMRX 270520
TAFTRI
TAF
KTRI 270520Z 2706/2806 00000KT P6SM BKN060
     FM271100 00000KT P6SM FEW050
     FM271500 33005KT P6SM SCT060
     FM280100 VRB02KT P6SM SCT045=



000
FTUS44 KMRX 270520
TAFCHA
TAF
KCHA 270520Z 2706/2806 36003KT P6SM SCT250
     FM271000 00000KT 6SM BR SCT250
     FM271400 36008KT P6SM SCT050
     FM280100 03003KT P6SM BKN250=



000
FTUS44 KMRX 270520
TAFTYS
TAF
KTYS 270520Z 2706/2806 36003KT P6SM BKN050
     FM271000 02003KT P6SM SCT050
     FM271400 02007KT P6SM SCT250
     FM280100 03003KT P6SM FEW050 BKN250=



000
FTUS44 KMRX 270223 AAA
TAFTRI
TAF AMD
KTRI 270223Z 2702/2724 05003KT P6SM BKN060
     FM270900 00000KT 6SM BR SCT060
     FM271300 28004KT P6SM FEW040
     FM272000 31010KT P6SM BKN060=



000
FTUS44 KMRX 270223 AAA
TAFTRI
TAF AMD
KTRI 270223Z 2702/2724 05003KT P6SM BKN060
     FM270900 00000KT 6SM BR SCT060
     FM271300 28004KT P6SM FEW040
     FM272000 31010KT P6SM BKN060=



000
FTUS44 KMRX 270220 AAA
TAFTYS
TAF AMD
KTYS 270220Z 2702/2724 36004KT P6SM BKN050
     FM270900 02003KT P6SM SCT035
     FM271400 02008KT P6SM SCT060=



000
FTUS44 KMRX 270220 AAA
TAFTYS
TAF AMD
KTYS 270220Z 2702/2724 36004KT P6SM BKN050
     FM270900 02003KT P6SM SCT035
     FM271400 02008KT P6SM SCT060=



000
FTUS44 KMRX 270220 AAA
TAFTYS
TAF AMD
KTYS 270220Z 2702/2724 36004KT P6SM BKN050
     FM270900 02003KT P6SM SCT035
     FM271400 02008KT P6SM SCT060=



000
FTUS44 KMRX 270218 AAA
TAFCHA
TAF AMD
KCHA 270218Z 2702/2724 35004KT P6SM SCT025
     FM271100 01003KT P6SM FEW035
     FM271400 02008KT P6SM SCT050=



000
FTUS44 KMRX 270218 AAA
TAFCHA
TAF AMD
KCHA 270218Z 2702/2724 35004KT P6SM SCT025
     FM271100 01003KT P6SM FEW035
     FM271400 02008KT P6SM SCT050=



000
FTUS44 KMRX 262320
TAFCHA
TAF
KCHA 262320Z 2700/2724 36010KT P6SM BKN040
     FM270400 35006KT P6SM OVC035
     FM271100 01003KT P6SM SCT030
     FM271400 02008KT P6SM SCT050=



000
FTUS44 KMRX 262320
TAFTRI
TAF
KTRI 262320Z 2700/2724 01005KT P6SM SCT030 BKN060
     FM270400 VRB02KT P6SM SCT025 OVC035
     FM270800 00000KT 6SM BR BKN025
     FM271300 28004KT P6SM SCT045
     FM272000 31010KT P6SM BKN060=



000
FTUS44 KMRX 262320
TAFTYS
TAF
KTYS 262320Z 2700/2724 36008KT P6SM SCT030 BKN040
      TEMPO 2700/2703 BKN030
     FM270400 36004KT P6SM BKN035
     FM270900 02003KT P6SM SCT035
     FM271400 02008KT P6SM SCT060=



000
FTUS44 KMRX 262320
TAFTRI
TAF
KTRI 262320Z 2700/2724 01005KT P6SM SCT030 BKN060
     FM270400 VRB02KT P6SM SCT025 OVC035
     FM270800 00000KT 6SM BR BKN025
     FM271300 28004KT P6SM SCT045
     FM272000 31010KT P6SM BKN060=



000
FTUS44 KMRX 262320
TAFCHA
TAF
KCHA 262320Z 2700/2724 36010KT P6SM BKN040
     FM270400 35006KT P6SM OVC035
     FM271100 01003KT P6SM SCT030
     FM271400 02008KT P6SM SCT050=



000
FTUS44 KMRX 262320
TAFTYS
TAF
KTYS 262320Z 2700/2724 36008KT P6SM SCT030 BKN040
      TEMPO 2700/2703 BKN030
     FM270400 36004KT P6SM BKN035
     FM270900 02003KT P6SM SCT035
     FM271400 02008KT P6SM SCT060=



000
FTUS44 KMRX 262320
TAFCHA
TAF
KCHA 262320Z 2700/2724 36010KT P6SM BKN040
     FM270400 35006KT P6SM OVC035
     FM271100 01003KT P6SM SCT030
     FM271400 02008KT P6SM SCT050=



000
FTUS44 KMRX 262320
TAFTRI
TAF
KTRI 262320Z 2700/2724 01005KT P6SM SCT030 BKN060
     FM270400 VRB02KT P6SM SCT025 OVC035
     FM270800 00000KT 6SM BR BKN025
     FM271300 28004KT P6SM SCT045
     FM272000 31010KT P6SM BKN060=



000
FTUS44 KMRX 262320
TAFTRI
TAF
KTRI 262320Z 2700/2724 01005KT P6SM SCT030 BKN060
     FM270400 VRB02KT P6SM SCT025 OVC035
     FM270800 00000KT 6SM BR BKN025
     FM271300 28004KT P6SM SCT045
     FM272000 31010KT P6SM BKN060=



000
FTUS44 KMRX 262320
TAFTYS
TAF
KTYS 262320Z 2700/2724 36008KT P6SM SCT030 BKN040
      TEMPO 2700/2703 BKN030
     FM270400 36004KT P6SM BKN035
     FM270900 02003KT P6SM SCT035
     FM271400 02008KT P6SM SCT060=



000
FTUS44 KMRX 262052 AAA
TAFCHA
TAF AMD
KCHA 262052Z 2621/2718 33010KT P6SM BKN035
     FM270100 36006KT P6SM SCT035
     FM271400 01012KT P6SM FEW040 BKN200=



000
FTUS44 KMRX 262052 AAA
TAFCHA
TAF AMD
KCHA 262052Z 2621/2718 33010KT P6SM BKN035
     FM270100 36006KT P6SM SCT035
     FM271400 01012KT P6SM FEW040 BKN200=



000
FTUS44 KMRX 261917 AAA
TAFTRI
TAF AMD
KTRI 261917Z 2619/2718 34008KT P6SM OVC025
     FM262200 33005KT P6SM BKN035
     FM270300 32004KT P6SM BKN050
     FM271400 32008KT P6SM SCT050=



000
FTUS44 KMRX 261917 AAA
TAFTRI
TAF AMD
KTRI 261917Z 2619/2718 34008KT P6SM OVC025
     FM262200 33005KT P6SM BKN035
     FM270300 32004KT P6SM BKN050
     FM271400 32008KT P6SM SCT050=



000
FTUS44 KMRX 261917 AAA
TAFTRI
TAF AMD
KTRI 261917Z 2619/2718 34008KT P6SM OVC025
     FM262200 33005KT P6SM BKN035
     FM270300 32004KT P6SM BKN050
     FM271400 32008KT P6SM SCT050=



000
FTUS44 KMRX 261917 AAA
TAFTRI
TAF AMD
KTRI 261917Z 2619/2718 34008KT P6SM OVC025
     FM262200 33005KT P6SM BKN035
     FM270300 32004KT P6SM BKN050
     FM271400 32008KT P6SM SCT050=



000
FTUS44 KMRX 261720
TAFCHA
TAF
KCHA 261720Z 2618/2718 31010KT P6SM BKN030
     FM270100 36006KT P6SM SCT035
     FM271400 01012KT P6SM FEW040 BKN200=



000
FTUS44 KMRX 261720
TAFCHA
TAF
KCHA 261720Z 2618/2718 31010KT P6SM BKN030
     FM270100 36006KT P6SM SCT035
     FM271400 01012KT P6SM FEW040 BKN200=



000
FTUS44 KMRX 261720
TAFTRI
TAF
KTRI 261720Z 2618/2718 34007KT P6SM BKN035
     FM270300 32004KT P6SM BKN050
     FM271400 32008KT P6SM SCT050=



000
FTUS44 KMRX 261720
TAFTRI
TAF
KTRI 261720Z 2618/2718 34007KT P6SM BKN035
     FM270300 32004KT P6SM BKN050
     FM271400 32008KT P6SM SCT050=



000
FTUS44 KMRX 261720
TAFTYS
TAF
KTYS 261720Z 2618/2718 31010KT P6SM BKN100
      TEMPO 2618/2622 BKN035
     FM270100 35005KT P6SM BKN080
     FM271300 02010KT P6SM SCT050=



000
FTUS44 KMRX 261720
TAFTRI
TAF
KTRI 261720Z 2618/2718 34007KT P6SM BKN035
     FM270300 32004KT P6SM BKN050
     FM271400 32008KT P6SM SCT050=



000
FTUS44 KMRX 261720
TAFTYS
TAF
KTYS 261720Z 2618/2718 31010KT P6SM BKN100
      TEMPO 2618/2622 BKN035
     FM270100 35005KT P6SM BKN080
     FM271300 02010KT P6SM SCT050=



000
FTUS44 KMRX 261720
TAFTYS
TAF
KTYS 261720Z 2618/2718 31010KT P6SM BKN100
      TEMPO 2618/2622 BKN035
     FM270100 35005KT P6SM BKN080
     FM271300 02010KT P6SM SCT050=



000
FTUS44 KMRX 261720
TAFCHA
TAF
KCHA 261720Z 2618/2718 31010KT P6SM BKN030
     FM270100 36006KT P6SM SCT035
     FM271400 01012KT P6SM FEW040 BKN200=



000
FTUS44 KMRX 261720
TAFTYS
TAF
KTYS 261720Z 2618/2718 31010KT P6SM BKN100
      TEMPO 2618/2622 BKN035
     FM270100 35005KT P6SM BKN080
     FM271300 02010KT P6SM SCT050=



000
FTUS44 KMRX 261720
TAFCHA
TAF
KCHA 261720Z 2618/2718 31010KT P6SM BKN030
     FM270100 36006KT P6SM SCT035
     FM271400 01012KT P6SM FEW040 BKN200=



000
FTUS44 KMRX 261720
TAFTRI
TAF
KTRI 261720Z 2618/2718 34007KT P6SM BKN035
     FM270300 32004KT P6SM BKN050
     FM271400 32008KT P6SM SCT050=



000
FTUS44 KMRX 261120
TAFTYS
TAF
KTYS 261120Z 2612/2712 22006KT P6SM BKN025 BKN100
     FM261600 32010KT P6SM BKN025
     FM262200 35005KT P6SM SCT250=



000
FTUS44 KMRX 261120
TAFCHA
TAF
KCHA 261120Z 2612/2712 24007KT P6SM BKN025 BKN100
     FM261500 31010KT P6SM BKN030
     FM270100 36006KT P6SM SCT250=



000
FTUS44 KMRX 261120
TAFTRI
TAF
KTRI 261120Z 2612/2712 23005KT P6SM BKN012 BKN040
     FM261300 29008KT P6SM BKN012
     FM262100 30006KT P6SM BKN035
     FM270600 28005KT P6SM SCT040 BKN100=



000
FTUS44 KMRX 261000 AAA
TAFTRI
TAF AMD
KTRI 261000Z 2610/2706 30006KT P6SM SCT012 BKN100
     FM261300 31010KT P6SM BKN015
     FM270100 30006KT P6SM BKN040=



000
FTUS44 KMRX 260958 AAA
TAFTYS
TAF AMD
KTYS 260958Z 2610/2706 22006KT P6SM SCT015 BKN100
     FM261300 26009KT P6SM BKN015
     FM261600 32012KT P6SM BKN050
     FM262300 35005KT P6SM SCT250=



000
FTUS44 KMRX 260958 AAA
TAFTYS
TAF AMD
KTYS 260958Z 2610/2706 22006KT P6SM SCT015 BKN100
     FM261300 26009KT P6SM BKN015
     FM261600 32012KT P6SM BKN050
     FM262300 35005KT P6SM SCT250=



000
FTUS44 KMRX 260631 AAA
TAFCHA
TAF AMD
KCHA 260631Z 2607/2706 22006KT 5SM -SHRA BR BKN030 BKN080
     FM260800 24007KT P6SM BKN035 BKN100
     FM261300 32012KT P6SM BKN050
     FM270100 36006KT P6SM SCT250=



000
FTUS44 KMRX 260631 AAA
TAFCHA
TAF AMD
KCHA 260631Z 2607/2706 22006KT 5SM -SHRA BR BKN030 BKN080
     FM260800 24007KT P6SM BKN035 BKN100
     FM261300 32012KT P6SM BKN050
     FM270100 36006KT P6SM SCT250=



000
FTUS44 KMRX 260631 AAA
TAFCHA
TAF AMD
KCHA 260631Z 2607/2706 22006KT 5SM -SHRA BR BKN030 BKN080
     FM260800 24007KT P6SM BKN035 BKN100
     FM261300 32012KT P6SM BKN050
     FM270100 36006KT P6SM SCT250=



000
FTUS44 KMRX 260529
TAFTYS
TAF
KTYS 260529Z 2606/2706 24015KT P6SM BKN035 BKN080
     FM260900 27010KT P6SM OVC030
     FM261600 32012KT P6SM BKN050
     FM262300 35005KT P6SM SCT250=



000
FTUS44 KMRX 260529
TAFTRI
TAF
KTRI 260529Z 2606/2706 24005KT P6SM BKN030 OVC060
     FM260800 26007KT P6SM BKN015
     FM261300 31010KT P6SM BKN025
     FM270100 30006KT P6SM BKN040=



000
FTUS44 KMRX 260529
TAFCHA
TAF
KCHA 260529Z 2606/2706 22006KT P6SM SCT035 BKN080
     FM261300 32012KT P6SM BKN050
     FM270100 36006KT P6SM SCT250=



000
FTUS44 KMRX 260529
TAFCHA
TAF
KCHA 260529Z 2606/2706 22006KT P6SM SCT035 BKN080
     FM261300 32012KT P6SM BKN050
     FM270100 36006KT P6SM SCT250=



000
FTUS44 KMRX 260529
TAFTYS
TAF
KTYS 260529Z 2606/2706 24015KT P6SM BKN035 BKN080
     FM260900 27010KT P6SM OVC030
     FM261600 32012KT P6SM BKN050
     FM262300 35005KT P6SM SCT250=



000
FTUS44 KMRX 260529
TAFTRI
TAF
KTRI 260529Z 2606/2706 24005KT P6SM BKN030 OVC060
     FM260800 26007KT P6SM BKN015
     FM261300 31010KT P6SM BKN025
     FM270100 30006KT P6SM BKN040=



000
FTUS44 KMRX 260529
TAFTYS
TAF
KTYS 260529Z 2606/2706 24015KT P6SM BKN035 BKN080
     FM260900 27010KT P6SM OVC030
     FM261600 32012KT P6SM BKN050
     FM262300 35005KT P6SM SCT250=



000
FTUS44 KMRX 260529
TAFTRI
TAF
KTRI 260529Z 2606/2706 24005KT P6SM BKN030 OVC060
     FM260800 26007KT P6SM BKN015
     FM261300 31010KT P6SM BKN025
     FM270100 30006KT P6SM BKN040=



000
FTUS44 KMRX 260529
TAFCHA
TAF
KCHA 260529Z 2606/2706 22006KT P6SM SCT035 BKN080
     FM261300 32012KT P6SM BKN050
     FM270100 36006KT P6SM SCT250=



000
FTUS44 KMRX 260529
TAFTYS
TAF
KTYS 260529Z 2606/2706 24015KT P6SM BKN035 BKN080
     FM260900 27010KT P6SM OVC030
     FM261600 32012KT P6SM BKN050
     FM262300 35005KT P6SM SCT250=



000
FTUS44 KMRX 260418 AAA
TAFTRI
TAF AMD
KTRI 260418Z 2604/2624 24005KT P6SM VCTS BKN030CB OVC050
      TEMPO 2605/2606 27020G35KT 2SM TSRA BR BKN010CB OVC030
     FM260700 24015KT P6SM OVC050
     FM261300 31010KT P6SM BKN030=



000
FTUS44 KMRX 260418 AAA
TAFTRI
TAF AMD
KTRI 260418Z 2604/2624 24005KT P6SM VCTS BKN030CB OVC050
      TEMPO 2605/2606 27020G35KT 2SM TSRA BR BKN010CB OVC030
     FM260700 24015KT P6SM OVC050
     FM261300 31010KT P6SM BKN030=



000
FTUS44 KMRX 260337 AAA
TAFTYS
TAF AMD
KTYS 260337Z 2604/2624 24015KT P6SM VCTS BKN030CB OVC050
      TEMPO 2604/2605 30030KT 2SM TSRA BKN025CB
     FM260700 27010KT P6SM OVC030
     FM261600 32012KT P6SM BKN060=



000
FTUS44 KMRX 260337 AAA
TAFTYS
TAF AMD
KTYS 260337Z 2604/2624 24015KT P6SM VCTS BKN030CB OVC050
      TEMPO 2604/2605 30030KT 2SM TSRA BKN025CB
     FM260700 27010KT P6SM OVC030
     FM261600 32012KT P6SM BKN060=



000
FTUS44 KMRX 260337 AAA
TAFTYS
TAF AMD
KTYS 260337Z 2604/2624 24015KT P6SM VCTS BKN030CB OVC050
      TEMPO 2604/2605 30030KT 2SM TSRA BKN025CB
     FM260700 27010KT P6SM OVC030
     FM261600 32012KT P6SM BKN060=



000
FTUS44 KMRX 252320
TAFTYS
TAF
KTYS 252320Z 2600/2624 23015G25KT P6SM SCT030 BKN100
     FM260400 24015KT P6SM VCTS BKN030CB OVC050
     FM260700 27010KT P6SM OVC030
     FM261600 32012KT P6SM BKN060=



000
FTUS44 KMRX 252320
TAFCHA
TAF
KCHA 252320Z 2600/2624 22008KT P6SM BKN050
     FM260500 22006KT P6SM VCTS BKN030CB
     FM260700 22006KT P6SM BKN050
     FM261300 32012KT P6SM BKN100=



000
FTUS44 KMRX 252320
TAFTYS
TAF
KTYS 252320Z 2600/2624 23015G25KT P6SM SCT030 BKN100
     FM260400 24015KT P6SM VCTS BKN030CB OVC050
     FM260700 27010KT P6SM OVC030
     FM261600 32012KT P6SM BKN060=



000
FTUS44 KMRX 252320
TAFTRI
TAF
KTRI 252320Z 2600/2624 25012G20KT P6SM BKN100
     FM260400 24005KT P6SM VCTS BKN030CB OVC050
      TEMPO 2604/2607 4SM TSRA BR BKN010CB OVC030
     FM260700 24015KT P6SM OVC050
     FM261300 31010KT P6SM BKN030=



000
FTUS44 KMRX 252320
TAFTRI
TAF
KTRI 252320Z 2600/2624 25012G20KT P6SM BKN100
     FM260400 24005KT P6SM VCTS BKN030CB OVC050
      TEMPO 2604/2607 4SM TSRA BR BKN010CB OVC030
     FM260700 24015KT P6SM OVC050
     FM261300 31010KT P6SM BKN030=



000
FTUS44 KMRX 252320
TAFCHA
TAF
KCHA 252320Z 2600/2624 22008KT P6SM BKN050
     FM260500 22006KT P6SM VCTS BKN030CB
     FM260700 22006KT P6SM BKN050
     FM261300 32012KT P6SM BKN100=



000
FTUS44 KMRX 252320
TAFCHA
TAF
KCHA 252320Z 2600/2624 22008KT P6SM BKN050
     FM260500 22006KT P6SM VCTS BKN030CB
     FM260700 22006KT P6SM BKN050
     FM261300 32012KT P6SM BKN100=



000
FTUS44 KMRX 252320
TAFTRI
TAF
KTRI 252320Z 2600/2624 25012G20KT P6SM BKN100
     FM260400 24005KT P6SM VCTS BKN030CB OVC050
      TEMPO 2604/2607 4SM TSRA BR BKN010CB OVC030
     FM260700 24015KT P6SM OVC050
     FM261300 31010KT P6SM BKN030=



000
FTUS44 KMRX 252320
TAFTYS
TAF
KTYS 252320Z 2600/2624 23015G25KT P6SM SCT030 BKN100
     FM260400 24015KT P6SM VCTS BKN030CB OVC050
     FM260700 27010KT P6SM OVC030
     FM261600 32012KT P6SM BKN060=



000
FTUS44 KMRX 252320
TAFCHA
TAF
KCHA 252320Z 2600/2624 22008KT P6SM BKN050
     FM260500 22006KT P6SM VCTS BKN030CB
     FM260700 22006KT P6SM BKN050
     FM261300 32012KT P6SM BKN100=



000
FTUS44 KMRX 252320
TAFTRI
TAF
KTRI 252320Z 2600/2624 25012G20KT P6SM BKN100
     FM260400 24005KT P6SM VCTS BKN030CB OVC050
      TEMPO 2604/2607 4SM TSRA BR BKN010CB OVC030
     FM260700 24015KT P6SM OVC050
     FM261300 31010KT P6SM BKN030=



000
FTUS44 KMRX 252320
TAFTYS
TAF
KTYS 252320Z 2600/2624 23015G25KT P6SM SCT030 BKN100
     FM260400 24015KT P6SM VCTS BKN030CB OVC050
     FM260700 27010KT P6SM OVC030
     FM261600 32012KT P6SM BKN060=



000
FTUS44 KMRX 251723
TAFTRI
TAF
KTRI 251723Z 2518/2618 VRB05KT P6SM BKN040
     FM252100 20008KT P6SM VCTS SCT030CB BKN100
     FM260000 25012G20KT 2SM -TSRA BR BKN020CB OVC040
     FM260600 24006KT 5SM BR SCT020 BKN040
      TEMPO 2608/2612 2SM BR BKN008
     FM261300 31010KT P6SM BKN012=



000
FTUS44 KMRX 251723
TAFCHA
TAF
KCHA 251723Z 2518/2618 18012KT P6SM BKN020 OVC050
     FM251900 20012G19KT P6SM BKN030 BKN060
     FM252300 22008KT P6SM VCTS BKN050CB
     FM260300 28007KT P6SM BKN100
     FM261300 32012KT P6SM BKN100=



000
FTUS44 KMRX 251723
TAFTYS
TAF
KTYS 251723Z 2518/2618 23010KT P6SM SCT020 BKN040
     FM252000 23015G25KT P6SM VCTS SCT030CB BKN100
     FM260600 25010KT P6SM BKN025 BKN080
     FM261600 32012KT P6SM BKN060=



000
FTUS44 KMRX 251723
TAFTRI
TAF
KTRI 251723Z 2518/2618 VRB05KT P6SM BKN040
     FM252100 20008KT P6SM VCTS SCT030CB BKN100
     FM260000 25012G20KT 2SM -TSRA BR BKN020CB OVC040
     FM260600 24006KT 5SM BR SCT020 BKN040
      TEMPO 2608/2612 2SM BR BKN008
     FM261300 31010KT P6SM BKN012=



000
FTUS44 KMRX 251723
TAFCHA
TAF
KCHA 251723Z 2518/2618 18012KT P6SM BKN020 OVC050
     FM251900 20012G19KT P6SM BKN030 BKN060
     FM252300 22008KT P6SM VCTS BKN050CB
     FM260300 28007KT P6SM BKN100
     FM261300 32012KT P6SM BKN100=



000
FTUS44 KMRX 251723
TAFCHA
TAF
KCHA 251723Z 2518/2618 18012KT P6SM BKN020 OVC050
     FM251900 20012G19KT P6SM BKN030 BKN060
     FM252300 22008KT P6SM VCTS BKN050CB
     FM260300 28007KT P6SM BKN100
     FM261300 32012KT P6SM BKN100=



000
FTUS44 KMRX 251723
TAFTYS
TAF
KTYS 251723Z 2518/2618 23010KT P6SM SCT020 BKN040
     FM252000 23015G25KT P6SM VCTS SCT030CB BKN100
     FM260600 25010KT P6SM BKN025 BKN080
     FM261600 32012KT P6SM BKN060=



000
FTUS44 KMRX 251723
TAFTYS
TAF
KTYS 251723Z 2518/2618 23010KT P6SM SCT020 BKN040
     FM252000 23015G25KT P6SM VCTS SCT030CB BKN100
     FM260600 25010KT P6SM BKN025 BKN080
     FM261600 32012KT P6SM BKN060=



000
FTUS44 KMRX 251723
TAFTRI
TAF
KTRI 251723Z 2518/2618 VRB05KT P6SM BKN040
     FM252100 20008KT P6SM VCTS SCT030CB BKN100
     FM260000 25012G20KT 2SM -TSRA BR BKN020CB OVC040
     FM260600 24006KT 5SM BR SCT020 BKN040
      TEMPO 2608/2612 2SM BR BKN008
     FM261300 31010KT P6SM BKN012=



000
FTUS44 KMRX 251507 AAC
TAFCHA
TAF AMD
KCHA 251507Z 2515/2612 19008KT 4SM BR BKN008 OVC050
     FM251600 19009KT P6SM BKN012 OVC050
     FM251800 22012KT P6SM BKN030 BKN060
     FM252300 22008KT P6SM BKN050
     FM260200 28007KT P6SM BKN100=



000
FTUS44 KMRX 251507 AAC
TAFCHA
TAF AMD
KCHA 251507Z 2515/2612 19008KT 4SM BR BKN008 OVC050
     FM251600 19009KT P6SM BKN012 OVC050
     FM251800 22012KT P6SM BKN030 BKN060
     FM252300 22008KT P6SM BKN050
     FM260200 28007KT P6SM BKN100=



000
FTUS44 KMRX 251407 AAA
TAFTRI
TAF AMD
KTRI 251407Z 2514/2612 VRB05KT P6SM BKN040
     FM252100 20008KT P6SM VCTS SCT030CB BKN100
     FM260200 25014G22KT 2SM -TSRA BR BKN020CB OVC040
     FM260600 24007KT 5SM BR BKN012=



000
FTUS44 KMRX 251407 AAA
TAFTRI
TAF AMD
KTRI 251407Z 2514/2612 VRB05KT P6SM BKN040
     FM252100 20008KT P6SM VCTS SCT030CB BKN100
     FM260200 25014G22KT 2SM -TSRA BR BKN020CB OVC040
     FM260600 24007KT 5SM BR BKN012=



000
FTUS44 KMRX 251405 AAA
TAFTYS
TAF AMD
KTYS 251405Z 2514/2612 VRB06KT P6SM VCSH SCT025 BKN100
     FM251600 22010KT P6SM SCT030 BKN100
     FM252200 23015G25KT P6SM VCTS SCT030CB BKN100
     FM260600 25010KT P6SM BKN025 BKN080=



000
FTUS44 KMRX 251405 AAA
TAFTYS
TAF AMD
KTYS 251405Z 2514/2612 VRB06KT P6SM VCSH SCT025 BKN100
     FM251600 22010KT P6SM SCT030 BKN100
     FM252200 23015G25KT P6SM VCTS SCT030CB BKN100
     FM260600 25010KT P6SM BKN025 BKN080=



000
FTUS44 KMRX 251405 AAA
TAFTYS
TAF AMD
KTYS 251405Z 2514/2612 VRB06KT P6SM VCSH SCT025 BKN100
     FM251600 22010KT P6SM SCT030 BKN100
     FM252200 23015G25KT P6SM VCTS SCT030CB BKN100
     FM260600 25010KT P6SM BKN025 BKN080=



000
FTUS44 KMRX 251402 AAB
TAFCHA
TAF AMD
KCHA 251402Z 2514/2612 VRB05KT 4SM BR BKN008 OVC050
     FM251500 19005KT P6SM BKN012 OVC050
     FM251700 22012KT P6SM BKN030 BKN060
     FM252300 22008KT P6SM BKN050
     FM260200 28007KT P6SM BKN100=



000
FTUS44 KMRX 251402 AAB
TAFCHA
TAF AMD
KCHA 251402Z 2514/2612 VRB05KT 4SM BR BKN008 OVC050
     FM251500 19005KT P6SM BKN012 OVC050
     FM251700 22012KT P6SM BKN030 BKN060
     FM252300 22008KT P6SM BKN050
     FM260200 28007KT P6SM BKN100=



000
FTUS44 KMRX 251402 AAB
TAFCHA
TAF AMD
KCHA 251402Z 2514/2612 VRB05KT 4SM BR BKN008 OVC050
     FM251500 19005KT P6SM BKN012 OVC050
     FM251700 22012KT P6SM BKN030 BKN060
     FM252300 22008KT P6SM BKN050
     FM260200 28007KT P6SM BKN100=



000
FTUS44 KMRX 251402 AAB
TAFCHA
TAF AMD
KCHA 251402Z 2514/2612 VRB05KT 4SM BR BKN008 OVC050
     FM251500 19005KT P6SM BKN012 OVC050
     FM251700 22012KT P6SM BKN030 BKN060
     FM252300 22008KT P6SM BKN050
     FM260200 28007KT P6SM BKN100=



000
FTUS44 KMRX 251227 AAA
TAFCHA
TAF AMD
KCHA 251227Z 2512/2612 VRB05KT 2SM -SHRA BR BKN007 OVC050
     FM251400 23005KT P6SM BKN012 BKN100
     FM251700 23012KT P6SM BKN030 OVC060
     FM252300 22008KT P6SM BKN050
     FM260200 28007KT P6SM BKN100=



000
FTUS44 KMRX 251227 AAA
TAFCHA
TAF AMD
KCHA 251227Z 2512/2612 VRB05KT 2SM -SHRA BR BKN007 OVC050
     FM251400 23005KT P6SM BKN012 BKN100
     FM251700 23012KT P6SM BKN030 OVC060
     FM252300 22008KT P6SM BKN050
     FM260200 28007KT P6SM BKN100=



000
FTUS44 KMRX 251227 AAA
TAFCHA
TAF AMD
KCHA 251227Z 2512/2612 VRB05KT 2SM -SHRA BR BKN007 OVC050
     FM251400 23005KT P6SM BKN012 BKN100
     FM251700 23012KT P6SM BKN030 OVC060
     FM252300 22008KT P6SM BKN050
     FM260200 28007KT P6SM BKN100=



000
FTUS44 KMRX 251227 AAA
TAFCHA
TAF AMD
KCHA 251227Z 2512/2612 VRB05KT 2SM -SHRA BR BKN007 OVC050
     FM251400 23005KT P6SM BKN012 BKN100
     FM251700 23012KT P6SM BKN030 OVC060
     FM252300 22008KT P6SM BKN050
     FM260200 28007KT P6SM BKN100=



000
FTUS44 KMRX 251120
TAFTRI
TAF
KTRI 251120Z 2512/2612 VRB03KT 5SM -SHRA BR BKN025 OVC040
     FM251500 15007KT P6SM BKN020 BKN040
     FM252000 20008KT P6SM VCTS BKN015 OVC030CB
     FM260200 25010G22KT 2SM -TSRA BR BKN020CB OVC040
     FM260600 24007KT 5SM BR BKN012=



000
FTUS44 KMRX 251120
TAFTRI
TAF
KTRI 251120Z 2512/2612 VRB03KT 5SM -SHRA BR BKN025 OVC040
     FM251500 15007KT P6SM BKN020 BKN040
     FM252000 20008KT P6SM VCTS BKN015 OVC030CB
     FM260200 25010G22KT 2SM -TSRA BR BKN020CB OVC040
     FM260600 24007KT 5SM BR BKN012=



000
FTUS44 KMRX 251120
TAFCHA
TAF
KCHA 251120Z 2512/2612 15005KT 2SM -SHRA BR BKN035 OVC050
     FM251300 15007KT P6SM VCSH SCT035 BKN050
     FM251400 17005KT P6SM BKN015 BKN100
     FM251900 23012KT P6SM BKN030 OVC060
     FM252300 22008KT P6SM BKN050
     FM260200 28007KT P6SM BKN100=



000
FTUS44 KMRX 251120
TAFTYS
TAF
KTYS 251120Z 2512/2612 26007KT 5SM -SHRA BR BKN035 OVC070
     FM251400 23009KT P6SM VCSH BKN015 BKN035
     FM251700 22010KT P6SM BKN020 OVC060
     FM260200 23015G25KT P6SM VCTS BKN020CB OVC040
     FM260600 25010KT P6SM BKN025 BKN080=



000
FTUS44 KMRX 251120
TAFCHA
TAF
KCHA 251120Z 2512/2612 15005KT 2SM -SHRA BR BKN035 OVC050
     FM251300 15007KT P6SM VCSH SCT035 BKN050
     FM251400 17005KT P6SM BKN015 BKN100
     FM251900 23012KT P6SM BKN030 OVC060
     FM252300 22008KT P6SM BKN050
     FM260200 28007KT P6SM BKN100=



000
FTUS44 KMRX 251120
TAFTYS
TAF
KTYS 251120Z 2512/2612 26007KT 5SM -SHRA BR BKN035 OVC070
     FM251400 23009KT P6SM VCSH BKN015 BKN035
     FM251700 22010KT P6SM BKN020 OVC060
     FM260200 23015G25KT P6SM VCTS BKN020CB OVC040
     FM260600 25010KT P6SM BKN025 BKN080=



000
FTUS44 KMRX 250537
TAFCHA
TAF
KCHA 250537Z 2506/2606 03004KT P6SM VCSH SCT050 BKN100
     FM250800 15003KT 5SM -SHRA BR BKN035 OVC080
     FM251300 19007KT 4SM -SHRA BR VCTS BKN015 OVC030CB
     FM251900 23012KT P6SM VCSH BKN030 OVC060
     FM252300 22008KT P6SM VCTS OVC025CB
     FM260200 24010KT P6SM VCSH SCT030 BKN080=



000
FTUS44 KMRX 250537
TAFTRI
TAF
KTRI 250537Z 2506/2606 00000KT P6SM SCT100 BKN200
     FM250800 00000KT P6SM SCT070 OVC150
     FM251000 VRB03KT P6SM VCSH BKN050 OVC120
     FM251400 17007KT 5SM -SHRA BR BKN035 OVC100
     FM251800 20008KT 3SM SHRA BR BKN015 OVC030
     FM252200 23010KT 4SM -SHRA BR VCTS BKN025CB OVC050
     FM260200 25010G22KT 4SM -TSRA BR BKN020CB OVC040=



000
FTUS44 KMRX 250537
TAFTYS
TAF
KTYS 250537Z 2506/2606 00000KT P6SM SCT080 BKN150
     FM250800 VRB03KT P6SM VCSH BKN050 OVC100
     FM251000 VRB04KT 5SM -SHRA BR BKN035 OVC070
     FM251400 23009KT 4SM -SHRA BR VCTS BKN025 OVC040CB
     FM252000 22010KT P6SM VCSH BKN030 OVC060
     FM260200 23015G25KT 4SM -TSRA BR BKN020CB OVC040=



000
FTUS44 KMRX 250537
TAFTYS
TAF
KTYS 250537Z 2506/2606 00000KT P6SM SCT080 BKN150
     FM250800 VRB03KT P6SM VCSH BKN050 OVC100
     FM251000 VRB04KT 5SM -SHRA BR BKN035 OVC070
     FM251400 23009KT 4SM -SHRA BR VCTS BKN025 OVC040CB
     FM252000 22010KT P6SM VCSH BKN030 OVC060
     FM260200 23015G25KT 4SM -TSRA BR BKN020CB OVC040=



000
FTUS44 KMRX 250537
TAFTRI
TAF
KTRI 250537Z 2506/2606 00000KT P6SM SCT100 BKN200
     FM250800 00000KT P6SM SCT070 OVC150
     FM251000 VRB03KT P6SM VCSH BKN050 OVC120
     FM251400 17007KT 5SM -SHRA BR BKN035 OVC100
     FM251800 20008KT 3SM SHRA BR BKN015 OVC030
     FM252200 23010KT 4SM -SHRA BR VCTS BKN025CB OVC050
     FM260200 25010G22KT 4SM -TSRA BR BKN020CB OVC040=



000
FTUS44 KMRX 250537
TAFCHA
TAF
KCHA 250537Z 2506/2606 03004KT P6SM VCSH SCT050 BKN100
     FM250800 15003KT 5SM -SHRA BR BKN035 OVC080
     FM251300 19007KT 4SM -SHRA BR VCTS BKN015 OVC030CB
     FM251900 23012KT P6SM VCSH BKN030 OVC060
     FM252300 22008KT P6SM VCTS OVC025CB
     FM260200 24010KT P6SM VCSH SCT030 BKN080=



000
FTUS44 KMRX 250537
TAFTRI
TAF
KTRI 250537Z 2506/2606 00000KT P6SM SCT100 BKN200
     FM250800 00000KT P6SM SCT070 OVC150
     FM251000 VRB03KT P6SM VCSH BKN050 OVC120
     FM251400 17007KT 5SM -SHRA BR BKN035 OVC100
     FM251800 20008KT 3SM SHRA BR BKN015 OVC030
     FM252200 23010KT 4SM -SHRA BR VCTS BKN025CB OVC050
     FM260200 25010G22KT 4SM -TSRA BR BKN020CB OVC040=



000
FTUS44 KMRX 250537
TAFTYS
TAF
KTYS 250537Z 2506/2606 00000KT P6SM SCT080 BKN150
     FM250800 VRB03KT P6SM VCSH BKN050 OVC100
     FM251000 VRB04KT 5SM -SHRA BR BKN035 OVC070
     FM251400 23009KT 4SM -SHRA BR VCTS BKN025 OVC040CB
     FM252000 22010KT P6SM VCSH BKN030 OVC060
     FM260200 23015G25KT 4SM -TSRA BR BKN020CB OVC040=



000
FTUS44 KMRX 250537
TAFCHA
TAF
KCHA 250537Z 2506/2606 03004KT P6SM VCSH SCT050 BKN100
     FM250800 15003KT 5SM -SHRA BR BKN035 OVC080
     FM251300 19007KT 4SM -SHRA BR VCTS BKN015 OVC030CB
     FM251900 23012KT P6SM VCSH BKN030 OVC060
     FM252300 22008KT P6SM VCTS OVC025CB
     FM260200 24010KT P6SM VCSH SCT030 BKN080=



000
FTUS44 KMRX 242321
TAFCHA
TAF
KCHA 242321Z 2500/2524 VRB03KT P6SM SCT080 BKN150
     FM250400 15003KT P6SM VCSH BKN040 OVC100
     FM250800 15005KT 5SM -SHRA BR OVC035
     FM251300 19009KT 4SM -SHRA BR VCTS BKN015 OVC030CB
     FM251900 23012KT P6SM VCSH BKN030 OVC060
     FM252300 22008KT P6SM VCTS OVC025CB=



000
FTUS44 KMRX 242321
TAFTRI
TAF
KTRI 242321Z 2500/2524 00000KT P6SM BKN250
     FM250500 00000KT P6SM BKN070 OVC150
     FM250900 VRB03KT P6SM VCSH BKN050 OVC120
     FM251400 17007KT 5SM -SHRA BR BKN035 OVC100
     FM251800 20008KT 3SM SHRA BR BKN015 OVC030
     FM252200 23010KT 4SM -SHRA BR VCTS BKN025CB OVC050=



000
FTUS44 KMRX 242321
TAFCHA
TAF
KCHA 242321Z 2500/2524 VRB03KT P6SM SCT080 BKN150
     FM250400 15003KT P6SM VCSH BKN040 OVC100
     FM250800 15005KT 5SM -SHRA BR OVC035
     FM251300 19009KT 4SM -SHRA BR VCTS BKN015 OVC030CB
     FM251900 23012KT P6SM VCSH BKN030 OVC060
     FM252300 22008KT P6SM VCTS OVC025CB=



000
FTUS44 KMRX 242321
TAFTYS
TAF
KTYS 242321Z 2500/2524 VRB03KT P6SM SCT100 BKN250
     FM250700 VRB04KT P6SM VCSH BKN040 OVC080
     FM251000 VRB04KT 5SM -SHRA BR OVC035
     FM251400 23009KT 4SM -SHRA BR VCTS BKN025 OVC040CB
     FM252000 22010KT P6SM VCSH BKN030 OVC060=



000
FTUS44 KMRX 242321
TAFTRI
TAF
KTRI 242321Z 2500/2524 00000KT P6SM BKN250
     FM250500 00000KT P6SM BKN070 OVC150
     FM250900 VRB03KT P6SM VCSH BKN050 OVC120
     FM251400 17007KT 5SM -SHRA BR BKN035 OVC100
     FM251800 20008KT 3SM SHRA BR BKN015 OVC030
     FM252200 23010KT 4SM -SHRA BR VCTS BKN025CB OVC050=



000
FTUS44 KMRX 242321
TAFTYS
TAF
KTYS 242321Z 2500/2524 VRB03KT P6SM SCT100 BKN250
     FM250700 VRB04KT P6SM VCSH BKN040 OVC080
     FM251000 VRB04KT 5SM -SHRA BR OVC035
     FM251400 23009KT 4SM -SHRA BR VCTS BKN025 OVC040CB
     FM252000 22010KT P6SM VCSH BKN030 OVC060=



000
FTUS44 KMRX 242321
TAFTYS
TAF
KTYS 242321Z 2500/2524 VRB03KT P6SM SCT100 BKN250
     FM250700 VRB04KT P6SM VCSH BKN040 OVC080
     FM251000 VRB04KT 5SM -SHRA BR OVC035
     FM251400 23009KT 4SM -SHRA BR VCTS BKN025 OVC040CB
     FM252000 22010KT P6SM VCSH BKN030 OVC060=



000
FTUS44 KMRX 242321
TAFCHA
TAF
KCHA 242321Z 2500/2524 VRB03KT P6SM SCT080 BKN150
     FM250400 15003KT P6SM VCSH BKN040 OVC100
     FM250800 15005KT 5SM -SHRA BR OVC035
     FM251300 19009KT 4SM -SHRA BR VCTS BKN015 OVC030CB
     FM251900 23012KT P6SM VCSH BKN030 OVC060
     FM252300 22008KT P6SM VCTS OVC025CB=



000
FTUS44 KMRX 242321
TAFTRI
TAF
KTRI 242321Z 2500/2524 00000KT P6SM BKN250
     FM250500 00000KT P6SM BKN070 OVC150
     FM250900 VRB03KT P6SM VCSH BKN050 OVC120
     FM251400 17007KT 5SM -SHRA BR BKN035 OVC100
     FM251800 20008KT 3SM SHRA BR BKN015 OVC030
     FM252200 23010KT 4SM -SHRA BR VCTS BKN025CB OVC050=



    US Dept of Commerce
    National Oceanic and Atmospheric Administration
    National Weather Service
    1325 East West Highway
    Silver Spring, MD 20910
    Page Author: NWS Internet Services Team
Disclaimer
Information Quality
Credits
Glossary
Privacy Policy
Freedom of Information Act (FOIA)
About Us
Career Opportunities